Time;durP1;ratioP1;P1;durP2;ratioP2;P2;SDS_P1;SDS_P2;PMS_P1;PMS_P2;Temp;Humidity;BMP_temperature;BMP_pressure;BME280_temperature;BME280_humidity;BME280_pressure;Samples;Min_cycle;Max_cycle;Signal;HPM_P1;HPM_P2
2021/08/25 00:04:47;;;;;;;5.35;4.78;;;;;;;11.00;86.41;100929.59;10416735;28;20193;-74
2021/08/25 00:09:48;;;;;;;4.75;4.35;;;;;;;10.61;89.15;100927.66;10416352;28;20053;-75
2021/08/25 00:14:50;;;;;;;6.28;5.13;;;;;;;10.78;87.93;100913.34;10416131;28;20103;-74
2021/08/25 00:19:51;;;;;;;7.43;5.03;;;;;;;10.48;89.66;100913.00;10414781;28;20045;-74
2021/08/25 00:24:53;;;;;;;5.25;4.53;;;;;;;10.41;90.07;100902.63;10414580;28;20053;-74
2021/08/25 00:29:55;;;;;;;4.53;3.75;;;;;;;10.31;90.56;100915.03;10415644;28;20045;-76
2021/08/25 00:34:56;;;;;;;4.82;4.30;;;;;;;10.26;90.79;100914.25;10413731;28;20091;-74
2021/08/25 00:39:58;;;;;;;6.22;4.53;;;;;;;10.27;91.06;100910.72;10415534;28;20566;-74
2021/08/25 00:45:02;;;;;;;4.82;4.43;;;;;;;10.35;90.38;100903.59;10413709;28;20054;-75
2021/08/25 00:50:05;;;;;;;6.43;4.80;;;;;;;10.52;87.98;100898.91;10415049;28;20041;-75
2021/08/25 00:55:07;;;;;;;5.15;4.65;;;;;;;10.50;87.65;100891.97;10414619;28;20084;-75
2021/08/25 01:00:10;;;;;;;5.40;4.68;;;;;;;10.27;89.07;100892.34;10414914;28;20416;-74
2021/08/25 01:05:12;;;;;;;4.57;4.18;;;;;;;10.08;90.11;100891.75;10415086;28;20454;-74
2021/08/25 01:10:28;;;;;;;5.93;5.32;;;;;;;10.03;90.78;100878.69;10413154;28;20045;-75
2021/08/25 01:15:35;;;;;;;4.18;3.78;;;;;;;10.04;90.52;100882.19;10413157;28;20049;-75
2021/08/25 01:20:38;;;;;;;;;;;;;;;10.08;90.46;100875.97;10452402;28;20544;-75
2021/08/25 01:25:42;;;;;;;4.55;4.13;;;;;;;10.10;89.45;100875.09;10455563;28;19928;-75
2021/08/25 01:30:44;;;;;;;5.43;3.53;;;;;;;10.13;88.85;100862.78;10455989;28;20041;-75
2021/08/25 01:35:46;;;;;;;4.20;3.80;;;;;;;10.18;87.29;100860.94;10459753;28;20083;-75
2021/08/25 01:40:47;;;;;;;5.63;4.35;;;;;;;9.93;89.32;100866.59;10463203;28;20041;-75
2021/08/25 01:45:49;;;;;;;5.57;4.03;;;;;;;9.86;89.96;100857.06;10463059;28;20095;-75
2021/08/25 01:50:51;;;;;;;4.57;4.18;;;;;;;9.78;89.96;100851.06;10462439;28;20151;-74
2021/08/25 01:55:52;;;;;;;4.28;3.88;;;;;;;9.64;90.77;100858.28;10462361;28;20060;-75
2021/08/25 02:00:54;;;;;;;4.53;3.67;;;;;;;9.57;91.44;100858.41;10462098;28;20507;-75
2021/08/25 02:05:55;;;;;;;4.90;4.13;;;;;;;9.59;91.57;100851.34;10461946;28;20569;-75
2021/08/25 02:10:58;;;;;;;5.50;4.80;;;;;;;9.68;91.76;100852.09;10461838;28;20048;-75
2021/08/25 02:16:00;;;;;;;4.25;3.55;;;;;;;9.67;91.43;100851.25;10461696;28;20091;-74
2021/08/25 02:21:01;;;;;;;4.85;3.70;;;;;;;10.03;88.52;100831.41;10461543;28;20041;-74
2021/08/25 02:26:04;;;;;;;5.35;4.15;;;;;;;9.77;89.13;100839.69;10460747;28;20517;-75
2021/08/25 02:31:05;;;;;;;4.20;3.80;;;;;;;9.65;90.06;100833.78;10461090;28;20107;-75
2021/08/25 02:36:08;;;;;;;4.95;4.00;;;;;;;10.03;87.29;100827.91;10459784;28;20049;-75
2021/08/25 02:41:12;;;;;;;4.63;3.97;;;;;;;9.88;87.70;100826.41;10460450;28;20040;-74
2021/08/25 02:46:14;;;;;;;4.28;3.88;;;;;;;9.89;86.39;100830.78;10460025;28;20091;-75
2021/08/25 02:51:16;;;;;;;5.70;3.80;;;;;;;9.55;88.80;100825.16;10460297;28;20041;-74
2021/08/25 02:56:17;;;;;;;4.25;3.92;;;;;;;9.52;88.71;100823.47;10460284;28;20106;-74
2021/08/25 03:01:19;;;;;;;5.15;3.90;;;;;;;9.42;89.63;100824.47;10459658;28;20033;-75
2021/08/25 03:06:21;;;;;;;5.65;4.53;;;;;;;9.26;90.41;100820.38;10459908;28;20110;-74
2021/08/25 03:11:26;;;;;;;7.75;4.50;;;;;;;9.20;90.87;100820.41;10441858;28;20215;-74
2021/08/25 03:16:28;;;;;;;4.93;4.43;;;;;;;9.22;91.00;100805.56;10458737;28;20099;-74
2021/08/25 03:21:29;;;;;;;7.07;4.60;;;;;;;9.09;90.88;100795.22;10458614;28;20079;-74
2021/08/25 03:26:31;;;;;;;5.57;4.00;;;;;;;9.20;90.73;100799.44;10458591;28;20037;-74
2021/08/25 03:31:32;;;;;;;4.95;4.32;;;;;;;9.28;90.32;100787.94;10459166;28;20103;-74
2021/08/25 03:36:34;;;;;;;5.28;4.78;;;;;;;9.13;89.82;100787.31;10458346;28;20564;-74
2021/08/25 03:41:36;;;;;;;5.43;4.80;;;;;;;9.01;90.76;100778.72;10458406;28;20045;-74
2021/08/25 03:46:37;;;;;;;5.30;4.80;;;;;;;8.94;91.19;100774.47;10457711;28;20487;-75
2021/08/25 03:51:39;;;;;;;8.43;5.10;;;;;;;8.95;90.93;100781.44;10455817;28;20475;-75
2021/08/25 03:56:40;;;;;;;7.15;5.55;;;;;;;9.44;88.47;100772.84;10456061;28;20057;-76
2021/08/25 04:01:42;;;;;;;5.47;4.97;;;;;;;9.39;88.60;100769.44;10456042;28;20071;-75
2021/08/25 04:06:44;;;;;;;6.82;5.30;;;;;;;9.10;90.03;100775.97;10458177;28;20055;-75
2021/08/25 04:11:46;;;;;;;5.78;4.95;;;;;;;9.04;91.00;100768.19;10456633;28;20079;-74
2021/08/25 04:16:47;;;;;;;6.80;6.20;;;;;;;8.99;91.49;100769.16;10456708;28;20119;-75
2021/08/25 04:21:49;;;;;;;10.45;6.53;;;;;;;8.88;91.73;100778.91;10456862;28;20163;-74
2021/08/25 04:26:50;;;;;;;6.70;6.10;;;;;;;8.94;92.09;100777.06;10454738;28;20053;-74
2021/08/25 04:31:52;;;;;;;7.97;5.95;;;;;;;9.05;91.54;100769.06;10454440;28;20135;-74
2021/08/25 04:36:54;;;;;;;6.55;5.85;;;;;;;9.08;91.59;100764.63;10455801;28;20067;-74
2021/08/25 04:41:55;;;;;;;6.22;5.53;;;;;;;9.43;89.56;100759.75;10454452;28;20045;-74
2021/08/25 04:47:00;;;;;;;6.53;5.40;;;;;;;9.22;90.96;100751.31;10457191;28;20049;-75
2021/08/25 04:52:02;;;;;;;9.45;6.22;;;;;;;9.30;90.75;100752.09;10456022;28;20048;-75
2021/08/25 04:57:03;;;;;;;6.55;5.90;;;;;;;9.58;89.71;100747.25;10456126;28;20049;-75
2021/08/25 05:02:05;;;;;;;11.07;6.40;;;;;;;9.45;90.63;100748.34;10456052;28;20041;-75
2021/08/25 05:07:07;;;;;;;7.28;5.70;;;;;;;9.44;91.85;100740.50;10456318;28;20443;-76
2021/08/25 05:12:08;;;;;;;7.88;6.53;;;;;;;9.48;91.82;100744.81;10462213;28;20033;-75
2021/08/25 05:17:10;;;;;;;6.68;6.07;;;;;;;9.60;91.75;100742.84;10484645;22;20040;-76
2021/08/25 05:22:12;;;;;;;6.97;5.75;;;;;;;9.76;91.32;100747.84;10516377;28;20078;-75
2021/08/25 05:27:14;;;;;;;6.68;5.97;;;;;;;9.96;90.53;100745.75;10514481;28;20044;-75
2021/08/25 05:32:16;;;;;;;6.60;5.82;;;;;;;10.28;89.08;100741.69;10513854;28;20477;-74
2021/08/25 05:37:18;;;;;;;6.88;6.05;;;;;;;10.33;88.22;100751.19;10514469;28;20083;-74
2021/08/25 05:42:20;;;;;;;6.60;6.00;;;;;;;10.34;88.45;100747.66;10497050;28;20040;-75
2021/08/25 05:47:23;;;;;;;5.93;5.30;;;;;;;10.43;87.89;100753.66;10498056;28;20095;-75
2021/08/25 05:52:25;;;;;;;6.55;5.95;;;;;;;10.54;87.51;100755.19;10499057;28;20036;-76
2021/08/25 05:57:27;;;;;;;6.07;5.53;;;;;;;10.73;87.71;100758.28;10516330;28;20098;-78
2021/08/25 06:02:28;;;;;;;5.70;5.18;;;;;;;10.83;86.34;100751.06;10494618;28;20055;-77
2021/08/25 06:07:31;;;;;;;6.75;6.10;;;;;;;11.43;84.05;100747.09;10493844;28;20102;-77
2021/08/25 06:12:33;;;;;;;4.95;4.55;;;;;;;11.96;80.07;100742.28;10512978;28;20412;-79
2021/08/25 06:17:35;;;;;;;6.25;5.63;;;;;;;12.43;79.29;100742.75;10494474;28;20053;-78
2021/08/25 06:22:37;;;;;;;5.68;4.70;;;;;;;13.01;76.31;100730.50;10494869;28;20045;-76
2021/08/25 06:27:39;;;;;;;6.22;5.13;;;;;;;13.15;75.99;100736.22;10518261;28;20044;-78
2021/08/25 06:32:41;;;;;;;5.30;4.43;;;;;;;13.49;75.29;100729.91;10502223;28;20115;-78
2021/08/25 06:37:42;;;;;;;7.38;4.93;;;;;;;14.05;72.60;100722.69;10514152;28;20049;-77
2021/08/25 06:42:44;;;;;;;5.43;4.95;;;;;;;14.04;72.90;100720.97;10513824;28;20074;-77
2021/08/25 06:47:46;;;;;;;5.30;4.80;;;;;;;13.71;73.78;100704.50;10498813;28;20045;-76
2021/08/25 06:52:51;;;;;;;6.85;4.55;;;;;;;13.82;73.38;100702.34;10494629;28;20043;-76
2021/08/25 06:57:53;;;;;;;6.78;4.85;;;;;;;14.39;70.75;100708.28;10512296;28;20094;-75
2021/08/25 07:02:55;;;;;;;6.43;4.68;;;;;;;14.50;72.79;100715.84;10507954;28;20513;-76
2021/08/25 07:07:58;;;;;;;5.55;4.75;;;;;;;14.71;71.88;100712.38;10508356;28;20395;-75
2021/08/25 07:13:00;;;;;;;5.57;4.55;;;;;;;14.54;74.21;100701.56;10506222;28;20051;-75
2021/08/25 07:18:01;;;;;;;5.68;4.68;;;;;;;14.65;71.68;100699.38;10507434;28;20040;-76
2021/08/25 07:23:18;;;;;;;6.63;4.75;;;;;;;14.74;73.26;100692.88;10507074;28;20067;-76
2021/08/25 07:28:19;;;;;;;5.90;4.18;;;;;;;14.90;72.39;100691.34;10507959;28;20044;-76
2021/08/25 07:33:22;;;;;;;5.88;4.82;;;;;;;15.05;68.60;100677.53;10505074;28;20041;-76
2021/08/25 07:38:24;;;;;;;5.20;4.47;;;;;;;15.08;69.24;100681.81;10487403;28;20044;-77
2021/08/25 07:43:26;;;;;;;7.47;5.00;;;;;;;15.16;69.84;100676.22;10505521;28;20390;-75
2021/08/25 07:48:27;;;;;;;5.55;5.05;;;;;;;15.18;69.28;100669.94;10503293;28;20048;-75
2021/08/25 07:53:30;;;;;;;5.25;4.63;;;;;;;15.55;66.62;100671.06;10504379;28;20435;-76
2021/08/25 07:58:33;;;;;;;6.85;6.03;;;;;;;15.71;66.24;100666.00;10486068;28;20037;-76
2021/08/25 08:03:45;;;;;;;5.30;4.18;;;;;;;15.83;65.81;100673.44;10503067;28;20098;-75
2021/08/25 08:08:47;;;;;;;4.82;4.43;;;;;;;15.63;66.39;100658.38;10502875;28;20056;-74
2021/08/25 08:13:49;;;;;;;5.05;4.47;;;;;;;16.20;63.33;100662.03;10502661;28;20044;-75
2021/08/25 08:24:12;;;;;;;6.18;4.28;;;;;;;16.77;63.37;100647.06;10461308;28;20479;-74
2021/08/25 08:29:14;;;;;;;4.10;3.70;;;;;;;16.68;63.95;100641.28;10498681;28;20048;-75
2021/08/25 08:34:15;;;;;;;5.80;4.00;;;;;;;16.82;62.88;100631.78;10492136;28;20048;-76
2021/08/25 08:39:18;;;;;;;5.65;4.20;;;;;;;16.84;62.70;100627.25;10459105;28;20041;-75
2021/08/25 08:44:20;;;;;;;5.43;3.78;;;;;;;17.25;59.82;100628.81;10459087;28;20041;-75
2021/08/25 08:49:22;;;;;;;5.25;3.28;;;;;;;17.32;60.18;100620.47;10458994;28;20468;-76
2021/08/25 08:54:24;;;;;;;3.38;2.83;;;;;;;17.63;58.14;100619.75;10474925;28;20055;-74
2021/08/25 08:59:25;;;;;;;5.88;4.38;;;;;;;17.38;58.87;100606.84;10499108;28;20127;-75
2021/08/25 09:04:33;;;;;;;3.33;3.03;;;;;;;17.47;57.58;100610.84;10501246;28;20033;-74
2021/08/25 09:09:55;;;;;;;4.82;2.85;;;;;;;17.77;58.03;100591.63;10500028;28;20048;-75
2021/08/25 09:15:17;;;;;;;5.80;3.63;;;;;;;18.05;55.73;100594.50;10499317;28;20040;-75
2021/08/25 09:20:19;;;;;;;4.78;3.35;;;;;;;17.70;59.49;100590.19;10446868;28;20049;-75
2021/08/25 09:25:31;;;;;;;4.35;3.13;;;;;;;18.43;58.93;100588.06;10457210;28;20490;-76
2021/08/25 09:30:53;;;;;;;5.45;3.20;;;;;;;18.58;55.18;100589.84;10456332;28;20041;-76
2021/08/25 09:36:03;;;;;;;5.18;2.58;;;;;;;18.15;57.15;100582.44;10455812;28;20037;-76
2021/08/25 09:41:10;;;;;;;4.07;2.90;;;;;;;18.82;55.69;100567.19;10458125;28;20391;-76
2021/08/25 09:46:13;;;;;;;;;;;;;;;19.28;52.17;100563.63;10456334;28;20041;-73
2021/08/25 09:51:18;;;;;;;6.43;4.85;;;;;;;18.73;54.56;100565.06;10456604;28;19975;-76
2021/08/25 09:56:27;;;;;;;4.60;3.28;;;;;;;18.96;53.26;100553.06;10442903;28;20127;-77
2021/08/25 10:01:29;;;;;;;4.57;3.17;;;;;;;19.97;52.55;100555.00;10446657;28;20055;-76
2021/08/25 10:06:39;;;;;;;3.85;2.80;;;;;;;19.61;50.51;100527.00;10463571;28;20033;-74
2021/08/25 10:11:45;;;;;;;4.18;2.97;;;;;;;19.87;50.61;100520.00;10465140;28;20405;-73
2021/08/25 10:16:49;;;;;;;3.03;2.57;;;;;;;20.85;47.80;100508.38;10466243;28;20043;-73
2021/08/25 10:21:52;;;;;;;4.38;2.55;;;;;;;20.32;50.57;100506.50;10488582;28;20036;-76
2021/08/25 10:26:59;;;;;;;2.88;2.55;;;;;;;19.91;49.06;100486.84;10488069;28;20047;-75
2021/08/25 10:32:01;;;;;;;2.88;2.47;;;;;;;20.80;47.51;100482.91;10488108;28;20106;-76
2021/08/25 10:37:11;;;;;;;4.25;3.28;;;;;;;21.47;47.88;100482.78;10506354;28;20055;-76
2021/08/25 10:42:13;;;;;;;3.35;3.05;;;;;;;21.80;45.89;100479.56;10506585;28;20040;-75
2021/08/25 10:47:17;;;;;;;3.08;2.50;;;;;;;22.31;44.70;100466.06;10489562;28;20684;-75
2021/08/25 10:52:18;;;;;;;3.00;2.70;;;;;;;21.53;44.53;100452.94;10505948;28;20063;-74
2021/08/25 10:57:22;;;;;;;4.38;2.85;;;;;;;22.33;45.36;100434.66;10486882;28;20055;-75
2021/08/25 11:02:23;;;;;;;3.38;2.55;;;;;;;22.22;44.82;100423.88;10503716;28;20037;-74
2021/08/25 11:07:25;;;;;;;3.53;3.22;;;;;;;21.86;45.58;100415.72;10505089;28;20091;-75
2021/08/25 11:12:27;;;;;;;2.70;2.30;;;;;;;22.07;46.20;100405.28;10505203;28;20037;-75
2021/08/25 11:17:32;;;;;;;2.70;2.08;;;;;;;22.08;44.29;100403.47;10511105;22;20049;-71
2021/08/25 11:22:43;;;;;;;3.43;3.00;;;;;;;22.02;46.25;100394.06;10459072;28;20048;-71
2021/08/25 11:27:47;;;;;;;4.45;2.92;;;;;;;21.17;47.65;100409.09;10458836;28;20083;-70
2021/08/25 11:32:51;;;;;;;2.80;2.60;;;;;;;21.99;45.22;100407.66;10459051;28;20045;-69
2021/08/25 11:37:55;;;;;;;2.72;2.20;;;;;;;21.93;43.53;100397.41;10458708;28;20465;-71
2021/08/25 11:43:07;;;;;;;2.58;2.30;;;;;;;21.77;44.08;100386.97;10458172;28;20090;-70
2021/08/25 11:48:09;;;;;;;2.38;2.17;;;;;;;21.10;43.01;100378.38;10458112;28;20048;-69
2021/08/25 11:53:22;;;;;;;2.78;2.15;;;;;;;21.89;45.04;100372.69;10457662;28;20124;-70
2021/08/25 11:58:30;;;;;;;4.35;1.95;;;;;;;21.77;41.52;100352.19;10457446;28;20059;-71
2021/08/25 12:03:43;;;;;;;2.55;2.35;;;;;;;21.67;44.43;100352.00;10439565;28;20148;-71
2021/08/25 12:08:50;;;;;;;4.53;2.40;;;;;;;22.03;43.53;100342.22;10458510;28;20052;-70
2021/08/25 12:13:59;;;;;;;2.50;2.30;;;;;;;22.04;44.36;100337.72;10439088;28;20107;-69
2021/08/25 12:19:03;;;;;;;2.13;1.92;;;;;;;21.74;42.40;100314.97;10456395;28;20106;-70
2021/08/25 12:24:06;;;;;;;2.70;2.50;;;;;;;21.42;43.39;100331.53;10456666;28;20440;-70
2021/08/25 12:29:08;;;;;;;2.88;2.58;;;;;;;21.29;45.29;100322.63;10438375;28;20057;-71
2021/08/25 12:34:14;;;;;;;3.88;2.28;;;;;;;21.16;45.50;100303.09;10456353;28;20041;-71
2021/08/25 12:39:17;;;;;;;3.63;2.22;;;;;;;20.90;44.94;100288.94;10456210;28;20096;-70
2021/08/25 12:44:19;;;;;;;3.15;2.80;;;;;;;20.96;43.53;100285.81;10455977;28;20036;-70
2021/08/25 12:49:26;;;;;;;2.85;2.35;;;;;;;21.00;44.81;100278.44;10456329;28;20139;-70
2021/08/25 12:54:29;;;;;;;4.68;2.72;;;;;;;21.39;45.31;100266.75;10456102;28;20052;-70
2021/08/25 12:59:30;;;;;;;3.63;3.20;;;;;;;21.07;43.78;100267.22;10438558;28;20167;-69
2021/08/25 13:04:32;;;;;;;4.45;2.45;;;;;;;21.20;44.02;100251.13;10455511;28;20041;-70
2021/08/25 13:09:33;;;;;;;2.83;2.38;;;;;;;21.48;42.57;100235.78;10455082;28;20055;-70
2021/08/25 13:14:35;;;;;;;2.92;2.30;;;;;;;21.38;44.43;100224.88;10455324;28;20482;-69
2021/08/25 13:19:37;;;;;;;2.90;2.60;;;;;;;21.34;46.06;100218.94;10455315;28;20382;-70
2021/08/25 13:24:38;;;;;;;3.85;3.38;;;;;;;21.73;42.50;100208.88;10455628;28;20041;-69
2021/08/25 13:29:40;;;;;;;3.28;2.90;;;;;;;21.42;42.83;100203.16;10455624;28;20044;-69
2021/08/25 13:34:41;;;;;;;3.95;2.45;;;;;;;21.61;43.29;100183.09;10462928;28;20048;-70
2021/08/25 13:39:43;;;;;;;3.67;2.78;;;;;;;21.13;41.88;100186.56;10463195;28;20052;-69
2021/08/25 13:44:45;;;;;;;2.53;2.30;;;;;;;21.04;43.68;100183.72;10444871;28;20041;-70
2021/08/25 13:49:46;;;;;;;3.25;2.10;;;;;;;20.84;42.42;100179.81;10445319;28;20048;-70
2021/08/25 13:54:48;;;;;;;3.42;1.95;;;;;;;20.69;44.12;100175.59;10462434;28;20162;-69
2021/08/25 13:59:50;;;;;;;2.85;2.35;;;;;;;20.43;41.66;100172.91;10444426;28;20041;-69
2021/08/25 14:04:51;;;;;;;2.22;2.00;;;;;;;20.30;43.65;100169.41;10444137;28;20414;-70
2021/08/25 14:09:53;;;;;;;3.38;2.30;;;;;;;20.28;42.54;100160.66;10461680;28;20482;-70
2021/08/25 14:14:54;;;;;;;3.63;2.35;;;;;;;20.11;41.05;100164.50;10461608;28;20056;-70
2021/08/25 14:19:56;;;;;;;2.20;2.00;;;;;;;19.97;41.72;100156.59;10442865;28;20107;-70
2021/08/25 14:24:58;;;;;;;2.53;2.30;;;;;;;20.19;42.46;100145.25;10443467;28;20045;-70
2021/08/25 14:29:59;;;;;;;2.83;2.60;;;;;;;20.03;44.93;100134.81;10443454;28;20556;-69
2021/08/25 14:35:01;;;;;;;2.80;2.05;;;;;;;19.96;45.78;100120.19;10442867;28;20048;-70
2021/08/25 14:40:03;;;;;;;3.10;2.53;;;;;;;20.04;46.36;100109.81;10461517;28;20041;-70
2021/08/25 14:45:05;;;;;;;3.45;2.60;;;;;;;20.12;43.94;100102.16;10460237;28;20499;-71
2021/08/25 14:50:13;;;;;;;3.22;2.65;;;;;;;20.10;43.63;100091.59;10437670;28;20049;-69
2021/08/25 14:55:14;;;;;;;2.75;2.47;;;;;;;20.03;45.76;100086.78;10446593;28;20387;-69
2021/08/25 15:00:16;;;;;;;2.67;2.20;;;;;;;19.99;44.55;100087.97;10383902;28;20049;-69
2021/08/25 15:05:18;;;;;;;3.33;2.17;;;;;;;20.08;45.85;100081.97;10443972;28;20059;-70
2021/08/25 15:10:19;;;;;;;6.75;2.35;;;;;;;19.77;46.71;100075.25;10459210;28;20049;-69
2021/08/25 15:15:21;;;;;;;3.35;2.83;;;;;;;19.81;46.05;100066.94;10458780;28;20044;-69
2021/08/25 15:20:24;;;;;;;2.97;2.63;;;;;;;19.95;45.65;100068.63;10457950;28;20053;-69
2021/08/25 15:25:25;;;;;;;3.38;2.85;;;;;;;19.83;46.03;100058.81;10457938;28;20045;-69
2021/08/25 15:30:27;;;;;;;3.63;3.15;;;;;;;19.84;47.50;100060.53;10457952;28;20052;-70
2021/08/25 15:35:29;;;;;;;3.05;2.65;;;;;;;19.74;47.54;100046.13;10458853;28;20055;-68
2021/08/25 15:40:30;;;;;;;4.53;3.03;;;;;;;19.63;48.76;100038.88;10458235;28;20118;-70
2021/08/25 15:45:32;;;;;;;4.40;3.15;;;;;;;19.62;48.45;100032.69;10458106;28;20163;-69
2021/08/25 15:50:33;;;;;;;5.65;2.80;;;;;;;19.54;49.13;100027.00;10457981;28;20049;-69
2021/08/25 15:55:35;;;;;;;3.03;2.65;;;;;;;19.78;49.51;100024.47;10440084;28;20115;-70
2021/08/25 16:00:38;;;;;;;3.22;2.55;;;;;;;19.73;48.99;100021.28;10457861;28;20045;-69
2021/08/25 16:05:39;;;;;;;3.47;3.15;;;;;;;19.84;50.26;100012.53;10457700;28;20087;-69
2021/08/25 16:10:43;;;;;;;7.85;2.67;;;;;;;19.62;50.30;100003.38;10457972;28;20052;-70
2021/08/25 16:15:45;;;;;;;2.80;2.35;;;;;;;19.53;46.78;99992.47;10457761;28;20041;-69
2021/08/25 16:20:46;;;;;;;3.55;2.90;;;;;;;19.60;45.76;99983.06;10456814;28;20047;-70
2021/08/25 16:25:48;;;;;;;3.13;2.75;;;;;;;19.52;46.66;99966.72;10456524;28;20090;-69
2021/08/25 16:30:49;;;;;;;2.95;2.42;;;;;;;19.41;47.04;99959.50;10455813;28;20495;-70
2021/08/25 16:35:52;;;;;;;3.53;2.80;;;;;;;19.26;46.22;99948.09;10456873;28;20044;-70
2021/08/25 16:40:54;;;;;;;3.47;2.47;;;;;;;19.07;47.12;99934.31;10456124;28;20091;-72
2021/08/25 16:45:57;;;;;;;4.07;2.72;;;;;;;18.97;48.01;99927.91;10456105;28;20487;-70
2021/08/25 16:50:59;;;;;;;2.60;2.10;;;;;;;19.02;47.60;99918.66;10455613;28;20450;-70
2021/08/25 16:56:01;;;;;;;2.47;2.20;;;;;;;19.10;47.33;99916.31;10455794;28;20049;-70
2021/08/25 17:01:02;;;;;;;2.88;2.47;;;;;;;18.99;48.66;99908.22;10455516;28;20055;-71
2021/08/25 17:06:04;;;;;;;3.20;2.70;;;;;;;19.03;47.69;99914.16;10458732;28;20051;-70
2021/08/25 17:11:06;;;;;;;2.92;2.63;;;;;;;18.73;49.70;99906.47;10464445;28;20079;-70
2021/08/25 17:16:08;;;;;;;3.08;2.30;;;;;;;18.74;49.58;99908.19;10447615;28;20049;-70
2021/08/25 17:21:09;;;;;;;4.07;2.42;;;;;;;18.63;50.51;99896.38;10493905;23;20049;-83
2021/08/25 17:26:11;;;;;;;2.50;2.28;;;;;;;18.57;51.36;99896.81;10488011;28;20060;-85
2021/08/25 17:31:12;;;;;;;2.85;2.55;;;;;;;18.44;52.05;99889.75;10469836;28;20117;-84
2021/08/25 17:36:17;;;;;;;3.55;2.75;;;;;;;18.31;53.09;99887.91;10450366;28;20091;-84
2021/08/25 17:41:20;;;;;;;3.92;3.00;;;;;;;18.17;53.65;99874.66;10466360;28;20053;-84
2021/08/25 17:46:21;;;;;;;3.85;2.72;;;;;;;17.98;54.65;99883.00;10463167;28;20036;-84
2021/08/25 17:51:23;;;;;;;4.03;3.17;;;;;;;18.00;54.20;99882.88;10481330;28;20053;-81
2021/08/25 17:56:25;;;;;;;7.05;4.85;;;;;;;17.98;53.70;99868.84;10482530;28;20063;-85
2021/08/25 18:01:28;;;;;;;14.45;4.25;;;;;;;17.95;55.89;99867.22;10483261;28;20104;-84
2021/08/25 18:06:30;;;;;;;3.05;2.42;;;;;;;18.09;52.76;99855.69;10464309;28;20057;-85
2021/08/25 18:11:32;;;;;;;3.20;2.47;;;;;;;18.03;53.59;99854.28;10484816;28;20053;-84
2021/08/25 18:16:33;;;;;;;3.45;2.58;;;;;;;18.00;53.37;99843.84;10483910;28;20033;-83
2021/08/25 18:21:42;;;;;;;3.53;2.70;;;;;;;17.90;53.77;99835.63;10450348;28;20053;-82
2021/08/25 18:26:44;;;;;;;4.38;2.75;;;;;;;17.83;54.15;99828.13;10465952;28;20100;-82
2021/08/25 18:31:47;;;;;;;3.40;2.80;;;;;;;17.97;54.19;99827.22;10466629;28;20144;-82
2021/08/25 18:36:48;;;;;;;3.67;2.95;;;;;;;17.71;55.78;99819.13;10465897;28;20045;-82
2021/08/25 18:41:50;;;;;;;3.20;2.47;;;;;;;17.54;56.85;99814.91;10461360;28;20049;-83
2021/08/25 18:46:51;;;;;;;2.65;2.45;;;;;;;17.57;55.94;99803.19;10481587;28;20102;-84
2021/08/25 18:52:02;;;;;;;3.38;3.08;;;;;;;17.47;56.05;99788.81;10485763;28;20040;-82
2021/08/25 18:57:04;;;;;;;4.00;2.85;;;;;;;17.46;56.36;99787.09;10462787;28;20044;-82
2021/08/25 19:02:06;;;;;;;3.47;2.42;;;;;;;17.56;55.74;99785.56;10491634;28;20040;-80
2021/08/25 19:07:10;;;;;;;3.85;3.45;;;;;;;17.56;55.51;99781.09;10506093;28;20037;-81
2021/08/25 19:12:12;;;;;;;3.63;2.67;;;;;;;17.51;55.37;99769.91;10506585;28;20048;-80
2021/08/25 19:17:13;;;;;;;3.08;2.72;;;;;;;17.49;55.01;99753.22;10492466;28;20128;-82
2021/08/25 19:22:18;;;;;;;5.35;3.13;;;;;;;17.23;56.61;99754.91;10483885;28;20493;-83
2021/08/25 19:27:21;;;;;;;4.03;3.00;;;;;;;17.23;55.96;99754.91;10487640;28;20058;-82
2021/08/25 19:32:23;;;;;;;3.33;2.75;;;;;;;17.27;56.07;99755.56;10508004;28;20033;-80
2021/08/25 19:37:25;;;;;;;3.10;2.75;;;;;;;16.96;58.66;99749.53;10508198;28;20540;-81
2021/08/25 19:42:26;;;;;;;2.63;2.42;;;;;;;16.74;58.55;99749.16;10508130;28;20070;-81
2021/08/25 19:47:27;;;;;;;3.17;2.72;;;;;;;16.72;58.38;99749.22;10487902;28;20033;-83
2021/08/25 19:52:29;;;;;;;3.50;3.13;;;;;;;16.92;57.63;99758.63;10483709;28;20045;-83
2021/08/25 19:57:31;;;;;;;3.17;2.80;;;;;;;17.07;57.53;99739.06;10463403;28;20061;-82
2021/08/25 20:02:32;;;;;;;3.80;3.25;;;;;;;17.28;56.03;99730.69;10463415;28;20376;-81
2021/08/25 20:07:35;;;;;;;3.78;3.20;;;;;;;17.36;55.64;99728.41;10444189;28;20049;-82
2021/08/25 20:12:37;;;;;;;3.42;2.95;;;;;;;17.22;56.22;99720.44;10461430;28;20049;-83
2021/08/25 20:17:39;;;;;;;3.70;2.83;;;;;;;17.35;56.40;99711.59;10461007;28;20045;-82
2021/08/25 20:22:41;;;;;;;3.30;3.00;;;;;;;17.36;56.41;99713.31;10460001;28;20490;-82
2021/08/25 20:27:43;;;;;;;4.00;3.10;;;;;;;17.36;56.75;99712.47;10457433;28;20044;-82
2021/08/25 20:32:44;;;;;;;3.00;2.67;;;;;;;17.14;57.63;99703.22;10457664;28;20080;-81
2021/08/25 20:37:46;;;;;;;3.33;3.03;;;;;;;17.25;57.25;99694.53;10478231;28;20045;-80
2021/08/25 20:42:47;;;;;;;3.40;3.10;;;;;;;17.19;58.81;99702.91;10460209;28;20040;-81
2021/08/25 20:47:49;;;;;;;4.55;2.95;;;;;;;17.27;58.04;99682.03;10455316;28;20056;-82
2021/08/25 20:52:52;;;;;;;3.88;2.97;;;;;;;17.12;58.80;99683.00;10456811;28;20041;-84
2021/08/25 20:57:54;;;;;;;3.92;3.63;;;;;;;17.23;58.61;99682.31;10456774;28;20048;-85
2021/08/25 21:02:56;;;;;;;4.68;3.80;;;;;;;17.38;58.49;99666.22;10480016;28;20140;-85
2021/08/25 21:07:58;;;;;;;5.25;3.00;;;;;;;17.23;58.82;99666.38;10475246;28;20079;-83
2021/08/25 21:12:59;;;;;;;3.15;2.85;;;;;;;17.25;59.81;99670.63;10456421;28;20099;-84
2021/08/25 21:18:01;;;;;;;7.47;2.90;;;;;;;17.20;60.28;99653.28;10461544;28;20041;-84
2021/08/25 21:23:03;;;;;;;3.42;2.58;;;;;;;17.37;59.70;99645.94;10506765;28;20124;-83
2021/08/25 21:28:05;;;;;;;4.35;3.38;;;;;;;17.25;60.42;99635.25;10506155;28;20041;-83
2021/08/25 21:33:06;;;;;;;5.95;3.28;;;;;;;17.22;60.63;99627.47;10469334;28;20053;-82
2021/08/25 21:38:08;;;;;;;3.13;2.83;;;;;;;17.13;61.69;99623.63;10460322;28;20075;-84
2021/08/25 21:43:09;;;;;;;4.03;3.10;;;;;;;16.99;62.19;99611.25;10438997;28;20513;-83
2021/08/25 21:48:11;;;;;;;3.33;3.03;;;;;;;17.05;61.67;99597.59;10456028;28;20070;-82
2021/08/25 21:53:12;;;;;;;4.80;3.22;;;;;;;17.05;61.84;99592.28;10477191;28;20560;-83
2021/08/25 21:58:14;;;;;;;3.35;3.05;;;;;;;17.06;61.79;99578.03;10465067;28;20130;-86
2021/08/25 22:03:15;;;;;;;6.32;3.13;;;;;;;17.14;61.82;99572.22;10481912;28;20037;-85
2021/08/25 22:08:17;;;;;;;3.15;2.70;;;;;;;17.21;61.27;99562.03;10481816;28;20049;-85
2021/08/25 22:13:18;;;;;;;4.72;2.88;;;;;;;17.13;61.57;99560.75;10463448;28;20063;-82
2021/08/25 22:18:20;;;;;;;4.93;3.15;;;;;;;17.03;62.08;99549.03;10487393;28;20055;-81
2021/08/25 22:23:22;;;;;;;4.20;2.88;;;;;;;17.09;61.63;99547.78;10489161;28;20051;-84
2021/08/25 22:28:23;;;;;;;5.40;3.30;;;;;;;17.01;61.93;99544.78;10502040;28;20033;-82
2021/08/25 22:33:25;;;;;;;3.80;3.00;;;;;;;16.97;61.68;99544.13;10484977;28;20049;-81
2021/08/25 22:38:26;;;;;;;5.47;3.38;;;;;;;17.17;60.88;99533.97;10493254;28;20049;-82
2021/08/25 22:43:28;;;;;;;3.85;3.30;;;;;;;17.08;61.13;99536.28;10498963;28;20049;-79
2021/08/25 22:48:29;;;;;;;3.15;2.83;;;;;;;16.95;62.20;99524.78;10498796;28;20053;-79
2021/08/25 22:53:31;;;;;;;3.28;2.97;;;;;;;16.89;62.07;99522.53;10483517;28;20112;-80
2021/08/25 22:58:32;;;;;;;4.78;3.17;;;;;;;16.97;62.64;99516.72;10491048;28;20033;-80
2021/08/25 23:03:34;;;;;;;5.80;3.40;;;;;;;16.77;64.85;99529.50;10480736;28;20041;-81
2021/08/25 23:08:37;;;;;;;4.32;2.95;;;;;;;16.75;64.61;99534.06;10479990;28;20053;-78
2021/08/25 23:13:39;;;;;;;6.25;3.72;;;;;;;16.33;68.44;99527.00;10479497;28;20045;-79
2021/08/25 23:18:40;;;;;;;5.70;3.80;;;;;;;16.18;69.17;99531.50;10517407;22;20045;-81
2021/08/25 23:23:42;;;;;;;6.93;3.55;;;;;;;16.17;69.38;99516.53;10452626;28;20032;-81
2021/08/25 23:28:43;;;;;;;4.32;3.70;;;;;;;16.04;69.72;99512.97;10470455;28;20045;-82